Latest Weather Observations for Edenhope

IDV60801

Issued at 3:31 pm EST Saturday 23 May 2015 (issued every 30 minutes, with the page automatically refreshed every 10 minutes)

About weather observations | Map of weather stations | Latest weather observations for VIC | Other Formats
Station Details ID: 079099 Name: EDENHOPE AIRPORT Lat: -37.02 Lon: 141.27 Height: 155.0 m
Data from the previous 72 hours. | See also: Recent months at Edenhope
Date/Time
EST
Temp
°C
App
Temp
°C
Dew
Point
Rel
Hum
%
Delta-T
°C
Wind Press
QNH
hPa
Press
MSL
hPa
Rain
since 9 am
mm
Dir
 
Spd
km/h
Gust
km/h
Spd
kts
Gust
kts
23/03:30pm 13.5 12.0 6.6 63 3.3 SW 4 6 2 3 - - 0.0
23/03:00pm 13.6 12.4 6.5 62 3.4 W 2 7 1 4 - - 0.0
23/02:30pm 12.7 11.0 5.8 63 3.3 WNW 4 6 2 3 - - 0.0
23/02:00pm 12.4 10.2 6.0 65 3.0 WNW 7 11 4 6 - - 0.0
23/01:30pm 12.4 10.5 6.5 67 2.8 W 6 9 3 5 - - 0.0
23/01:00pm 12.9 11.7 6.5 65 3.1 NNW 2 7 1 4 - - 0.0
23/12:30pm 11.5 9.8 5.8 68 2.7 E 4 6 2 3 - - 0.0
23/12:00pm 11.1 9.4 5.8 70 2.5 ENE 4 6 2 3 - - 0.0
23/11:30am 10.2 8.4 5.4 72 2.2 E 4 7 2 4 - - 0.0
23/11:00am 9.3 7.5 5.3 76 1.8 ESE 4 9 2 5 - - 0.0
23/10:30am 8.6 6.3 5.5 81 1.4 ESE 7 11 4 6 - - 0.0
23/10:00am 7.7 5.4 5.5 86 1.0 SE 7 11 4 6 - - 0.0
23/09:30am 6.2 5.2 5.8 97 0.2 CALM 0 2 0 1 - - 0.0
23/09:00am 4.9 3.7 4.6 98 0.1 CALM 0 0 0 0 - - 0.2
23/08:30am 3.2 1.7 2.8 97 0.2 CALM 0 0 0 0 - - 0.2
23/08:00am 2.0 -0.5 1.6 97 0.2 SSE 4 6 2 3 - - 0.2
23/07:30am 1.5 -1.1 1.1 97 0.2 S 4 6 2 3 - - 0.2
23/07:00am 1.5 -0.3 1.1 97 0.2 CALM 0 0 0 0 - - 0.2
23/06:30am 1.3 -0.5 0.9 97 0.2 CALM 0 0 0 0 - - 0.2
23/06:00am 1.9 0.1 1.5 97 0.2 CALM 0 0 0 0 - - 0.2
23/05:30am 2.3 0.6 1.7 96 0.2 CALM 0 0 0 0 - - 0.2
23/05:00am 1.9 -0.3 1.3 96 0.2 SSW 2 2 1 1 - - 0.2
23/04:30am 2.4 0.7 1.8 96 0.2 CALM 0 0 0 0 - - 0.0
23/04:00am 2.6 0.9 2.0 96 0.2 CALM 0 0 0 0 - - 0.0
23/03:30am 3.2 1.6 2.5 95 0.3 CALM 0 0 0 0 - - 0.0
23/03:00am 3.0 1.3 2.1 94 0.4 CALM 0 0 0 0 - - 0.0
23/02:30am 3.9 2.3 2.7 92 0.5 CALM 0 0 0 0 - - 0.0
23/02:00am 4.8 3.4 3.3 90 0.6 CALM 0 0 0 0 - - 0.0
23/01:30am 5.7 3.9 3.7 87 0.8 SSE 2 4 1 2 - - 0.0
23/01:00am 6.8 4.4 4.1 83 1.2 SE 6 6 3 3 - - 0.0
23/12:30am 7.2 4.6 4.2 81 1.3 SE 7 11 4 6 - - 0.0
23/12:00am 7.9 5.4 4.5 79 1.5 SE 7 11 4 6 - - 0.0
 
Date/Time
EST
Temp
°C
App
Temp
°C
Dew
Point
Rel
Hum
%
Delta-T
°C
Wind Press
QNH
hPa
Press
MSL
hPa
Rain
since 9 am
mm
Dir
 
Spd
km/h
Gust
km/h
Spd
kts
Gust
kts
22/11:30pm 8.7 4.7 4.7 76 1.8 SE 15 22 8 12 - - 0.0
22/11:00pm 9.1 5.9 5.1 76 1.8 SE 11 17 6 9 - - 0.0
22/10:30pm 9.1 6.2 4.9 75 1.9 SE 9 15 5 8 - - 0.0
22/10:00pm 9.2 4.8 4.8 74 2.0 SE 17 26 9 14 - - 0.0
22/09:30pm 9.3 5.3 4.7 73 2.1 SE 15 26 8 14 - - 0.0
22/09:00pm 9.4 6.1 4.8 73 2.1 SE 11 19 6 10 - - 0.0
22/08:30pm 9.5 5.5 4.7 72 2.2 SE 15 24 8 13 - - 0.0
22/08:00pm 10.0 6.0 5.0 71 2.3 SE 15 24 8 13 - - 0.0
22/07:30pm 10.2 6.3 5.2 71 2.3 SE 15 24 8 13 - - 0.0
22/07:00pm 10.2 7.1 5.4 72 2.2 SSE 11 20 6 11 - - 0.0
22/06:30pm 10.4 6.8 5.2 70 2.4 SSE 13 20 7 11 - - 0.0
22/06:00pm 10.5 6.2 5.3 70 2.4 S 17 24 9 13 - - 0.0
22/05:30pm 10.7 6.1 5.5 70 2.4 SE 19 26 10 14 - - 0.0
22/05:00pm 11.0 7.1 5.5 69 2.6 SSE 15 22 8 12 - - 0.0
22/04:30pm 11.3 7.1 5.8 69 2.6 SSE 17 26 9 14 - - 0.0
22/04:00pm 11.6 7.1 5.9 68 2.7 SSE 19 24 10 13 - - 0.0
22/03:30pm 11.7 7.2 6.0 68 2.7 SSE 19 28 10 15 - - 0.0
22/03:00pm 11.9 7.8 6.2 68 2.7 SSE 17 24 9 13 - - 0.0
22/02:30pm 12.2 7.7 6.3 67 2.8 SE 19 32 10 17 - - 0.0
22/02:00pm 12.1 8.0 6.2 67 2.8 SE 17 26 9 14 - - 0.0
22/01:30pm 12.2 8.6 6.9 70 2.6 SSE 15 24 8 13 - - 0.0
22/01:00pm 12.1 8.4 6.4 68 2.7 SSE 15 20 8 11 - - 0.0
22/12:30pm 12.0 7.5 6.1 67 2.8 SSE 19 26 10 14 - - 0.0
22/12:00pm 12.1 7.0 6.2 67 2.8 SSE 22 32 12 17 - - 0.0
22/11:30am 12.8 8.4 6.6 66 3.0 SSE 19 30 10 16 - - 0.0
22/11:00am 12.3 7.7 5.7 64 3.1 SSE 19 32 10 17 - - 0.0
22/10:30am 12.0 8.4 6.9 71 2.5 SSE 15 24 8 13 - - 0.0
22/10:00am 11.1 7.7 7.6 79 1.7 SSE 15 20 8 11 - - 0.0
22/09:30am 9.2 6.8 7.2 87 0.9 S 9 13 5 7 - - 0.0
22/09:00am 8.2 6.3 6.8 91 0.7 S 6 9 3 5 - - 0.0
22/08:30am 6.9 5.6 6.2 95 0.3 SSW 2 6 1 3 - - 0.0
22/08:00am 6.2 4.8 5.5 95 0.3 SSW 2 4 1 2 - - 0.0
22/07:30am 6.4 5.1 5.8 96 0.3 S 2 4 1 2 - - 0.0
22/07:00am 6.4 4.1 5.8 96 0.3 S 7 11 4 6 - - 0.0
22/06:30am 6.5 4.4 5.9 96 0.3 S 6 7 3 4 - - 0.0
22/06:00am 6.7 5.0 6.1 96 0.3 S 4 7 2 4 - - 0.0
22/05:30am 6.9 5.3 6.3 96 0.3 S 4 6 2 3 - - 0.0
22/05:00am 7.5 5.5 6.9 96 0.3 S 7 9 4 5 - - 0.0
22/04:30am 7.9 5.9 7.1 95 0.4 S 7 9 4 5 - - 0.0
22/04:00am 8.2 6.5 7.4 95 0.4 SSW 6 9 3 5 - - 0.0
22/03:30am 8.7 6.9 7.8 94 0.4 SSW 7 11 4 6 - - 0.0
22/03:00am 9.8 7.0 8.4 91 0.7 SSE 13 19 7 10 - - 0.0
22/02:30am 9.9 7.1 8.7 92 0.6 S 13 19 7 10 - - 0.0
22/02:00am 9.7 7.0 8.8 94 0.4 SSE 13 19 7 10 - - 0.0
22/01:30am 9.6 7.2 8.7 94 0.4 S 11 20 6 11 - - 0.0
22/01:00am 9.9 6.8 8.8 93 0.5 S 15 22 8 12 - - 0.0
22/12:30am 9.9 6.4 8.8 93 0.5 S 17 24 9 13 - - 0.0
22/12:00am 9.9 6.8 8.8 93 0.5 S 15 24 8 13 - - 0.0
 
Date/Time
EST
Temp
°C
App
Temp
°C
Dew
Point
Rel
Hum
%
Delta-T
°C
Wind Press
QNH
hPa
Press
MSL
hPa
Rain
since 9 am
mm
Dir
 
Spd
km/h
Gust
km/h
Spd
kts
Gust
kts
21/11:30pm 9.8 7.5 9.0 95 0.4 S 11 19 6 10 - - 0.0
21/11:00pm 9.8 7.9 8.9 94 0.4 S 9 15 5 8 - - 0.0
21/10:30pm 10.0 7.6 8.6 91 0.7 SSE 11 19 6 10 - - 0.0
21/10:00pm 10.1 6.9 8.5 90 0.8 SSE 15 19 8 10 - - 0.0
21/09:30pm 10.1 7.3 8.4 89 0.8 S 13 20 7 11 - - 0.0
21/09:00pm 10.1 7.7 8.5 90 0.8 S 11 17 6 9 - - 0.0
21/08:30pm 10.1 8.2 8.9 92 0.6 SSE 9 13 5 7 - - 0.0
21/08:00pm 9.7 8.1 8.6 93 0.5 S 7 11 4 6 - - 0.0
21/07:30pm 10.0 8.0 8.8 92 0.6 S 9 13 5 7 - - 0.0
21/07:00pm 10.3 8.4 8.9 91 0.7 SSW 9 17 5 9 - - 0.0
21/06:30pm 10.4 9.0 9.0 91 0.7 SSW 6 11 3 6 - - 0.0
21/06:00pm 10.4 8.8 8.7 89 0.8 SSW 7 13 4 7 - - 0.0
21/05:30pm 10.5 8.9 8.6 88 0.9 SSW 7 11 4 6 - - 0.0
21/05:00pm 11.0 8.6 8.6 85 1.2 SSW 11 19 6 10 - - 0.0
21/04:30pm 11.0 8.5 8.2 83 1.4 SSW 11 20 6 11 - - 0.0
21/04:00pm 12.3 8.9 7.8 74 2.2 S 15 22 8 12 - - 0.0
21/03:30pm 12.4 9.8 7.9 74 2.2 S 11 19 6 10 - - 0.0
21/03:00pm 12.0 9.4 7.9 76 2.0 SSW 11 19 6 10 - - 0.0
21/02:30pm 11.7 8.3 7.8 77 1.9 S 15 22 8 12 - - 0.0
21/02:00pm 12.3 9.7 7.6 73 2.3 S 11 17 6 9 - - 0.0
21/01:30pm 11.9 9.1 7.0 72 2.4 S 11 17 6 9 - - 0.0
21/01:00pm 11.8 8.2 6.7 71 2.4 SSE 15 19 8 10 - - 0.0
21/12:30pm 11.8 8.2 6.7 71 2.4 S 15 20 8 11 - - 0.0
21/12:00pm 11.3 7.7 6.6 73 2.2 S 15 24 8 13 - - 0.0
21/11:30am 11.0 7.8 6.7 75 2.0 S 13 20 7 11 - - 0.0
21/11:00am 10.9 7.4 7.2 78 1.8 S 15 22 8 12 - - 0.0
21/10:30am 9.7 7.3 6.8 82 1.4 S 9 13 5 7 - - 0.0
21/10:00am 8.5 6.3 6.3 86 1.0 SSW 7 11 4 6 - - 0.0
21/09:30am 7.9 5.3 5.9 87 0.9 SW 9 13 5 7 - - 0.0
21/09:00am 7.3 5.2 5.8 90 0.7 SSW 6 9 3 5 - - 0.2
21/08:30am 7.3 5.2 5.6 89 0.8 SSW 6 6 3 3 - - 0.2
21/08:00am 7.2 5.1 5.7 90 0.7 S 6 7 3 4 - - 0.2
21/07:30am 7.1 4.7 5.4 89 0.8 SSW 7 9 4 5 - - 0.2
21/07:00am 7.1 4.9 5.4 89 0.8 SW 6 9 3 5 - - 0.2
21/06:30am 7.0 4.9 5.6 91 0.6 SW 6 9 3 5 - - 0.2
21/06:00am 7.0 4.9 5.8 92 0.5 SW 6 7 3 4 - - 0.2
21/05:30am 7.1 5.0 6.0 93 0.5 SW 6 9 3 5 - - 0.2
21/05:00am 7.1 5.4 6.0 93 0.5 SSW 4 6 2 3 - - 0.2
21/04:30am 7.0 5.0 6.1 94 0.4 SSW 6 7 3 4 - - 0.2
21/04:00am 6.9 4.7 6.0 94 0.4 SW 7 9 4 5 - - 0.2
21/03:30am 7.3 5.2 5.9 91 0.6 SSW 6 9 3 5 - - 0.2
21/03:00am 7.2 5.1 5.8 91 0.6 S 6 9 3 5 - - 0.2
21/02:30am 7.2 4.5 5.7 90 0.7 S 9 13 5 7 - - 0.2
21/02:00am 7.1 4.1 5.9 92 0.5 S 11 17 6 9 - - 0.2
21/01:30am 6.9 4.2 5.8 93 0.5 S 9 15 5 8 - - 0.2
21/01:00am 7.1 4.9 6.0 93 0.5 SSW 7 9 4 5 - - 0.2
21/12:30am 7.3 5.1 6.2 93 0.5 SSW 7 11 4 6 - - 0.2
21/12:00am 7.3 5.1 6.4 94 0.4 SSW 7 9 4 5 - - 0.2
 
Date/Time
EST
Temp
°C
App
Temp
°C
Dew
Point
Rel
Hum
%
Delta-T
°C
Wind Press
QNH
hPa
Press
MSL
hPa
Rain
since 9 am
mm
Dir
 
Spd
km/h
Gust
km/h
Spd
kts
Gust
kts
20/11:30pm 7.4 5.2 6.3 93 0.5 SSW 7 11 4 6 - - 0.2
20/11:00pm 7.6 5.5 6.5 93 0.5 SSW 7 13 4 7 - - 0.2
20/10:30pm 7.6 5.5 6.5 93 0.5 SSW 7 11 4 6 - - 0.2
20/10:00pm 7.5 5.0 6.4 93 0.5 S 9 15 5 8 - - 0.2
20/09:30pm 8.0 5.1 6.5 90 0.7 S 11 20 6 11 - - 0.2
20/09:00pm 8.4 5.2 6.9 90 0.7 S 13 20 7 11 - - 0.2
20/08:30pm 8.5 5.8 7.3 92 0.6 S 11 19 6 10 - - 0.2
20/08:00pm 8.6 5.9 7.5 93 0.5 S 11 20 6 11 - - 0.2
20/07:30pm 9.0 5.6 7.5 90 0.7 S 15 24 8 13 - - 0.2
20/07:00pm 9.1 6.9 7.7 91 0.7 SSW 9 15 5 8 - - 0.2
20/06:30pm 9.2 6.2 7.8 91 0.7 S 13 22 7 12 - - 0.2
20/06:00pm 9.2 5.5 7.8 91 0.7 S 17 24 9 13 - - 0.2
20/05:30pm 9.3 5.7 8.4 94 0.4 S 17 26 9 14 - - 0.2
20/05:00pm 10.2 7.0 8.3 88 0.9 SSW 15 24 8 13 - - 0.2
20/04:30pm 10.4 7.0 9.0 91 0.7 S 17 24 9 13 - - 0.2
20/04:00pm 12.2 8.2 8.3 77 1.9 SSW 19 32 10 17 - - 0.2

Other Formats:

Comma delimited format used in spreadsheet applications
http://www.bom.gov.au/fwo/IDV60801/IDV60801.95832.axf

JavaScript Object Notation format (JSON) in row-major order
http://www.bom.gov.au/fwo/IDV60801/IDV60801.95832.json